createdAt,value
2019-05-29T00:01:00.750Z,99.90
2019-05-29T00:03:29.321Z,99.90
2019-05-29T00:05:58.022Z,99.90
2019-05-29T00:08:26.603Z,99.90
2019-05-29T00:10:55.197Z,99.90
2019-05-29T00:13:23.765Z,99.90
2019-05-29T00:15:52.385Z,99.90
2019-05-29T00:18:20.890Z,99.90
2019-05-29T00:20:49.518Z,99.90
2019-05-29T00:23:18.822Z,99.90
2019-05-29T00:25:47.399Z,99.90
2019-05-29T00:28:16.785Z,99.90
2019-05-29T00:30:45.338Z,99.90
2019-05-29T00:33:14.442Z,99.90
2019-05-29T00:35:43.078Z,99.90
2019-05-29T00:38:12.639Z,99.90
2019-05-29T00:40:41.213Z,99.90
2019-05-29T00:43:09.773Z,99.90
2019-05-29T00:45:38.281Z,99.90
2019-05-29T00:48:07.732Z,99.90
2019-05-29T00:50:36.330Z,99.90
2019-05-29T00:53:04.881Z,99.90
2019-05-29T00:55:33.390Z,99.90
2019-05-29T00:58:01.954Z,99.90
2019-05-29T01:00:30.523Z,99.90
2019-05-29T01:02:59.096Z,99.90
2019-05-29T01:05:27.673Z,99.90
2019-05-29T01:07:56.239Z,99.90
2019-05-29T01:10:24.887Z,99.90
2019-05-29T01:12:53.471Z,99.90
2019-05-29T01:15:22.381Z,99.90
2019-05-29T01:17:50.975Z,99.90
2019-05-29T01:20:22.026Z,99.90
2019-05-29T01:22:50.641Z,99.90
2019-05-29T01:25:19.262Z,99.90
2019-05-29T01:27:47.825Z,99.90
2019-05-29T01:30:17.301Z,99.90
2019-05-29T01:32:45.831Z,99.90
2019-05-29T01:35:14.405Z,99.90
2019-05-29T01:37:42.966Z,99.90
2019-05-29T01:40:21.018Z,99.90
2019-05-29T01:42:42.091Z,99.90
2019-05-29T01:45:10.916Z,99.90
2019-05-29T01:47:39.473Z,99.90
2019-05-29T01:50:08.062Z,99.90
2019-05-29T01:52:36.648Z,99.90
2019-05-29T01:55:06.577Z,99.90
2019-05-29T01:57:35.125Z,99.90
2019-05-29T02:00:08.020Z,99.90
2019-05-29T02:02:36.570Z,99.90
2019-05-29T02:05:06.090Z,99.90
2019-05-29T02:07:34.661Z,99.90
2019-05-29T02:10:04.842Z,99.90
2019-05-29T02:12:33.399Z,99.90
2019-05-29T02:15:01.981Z,99.90
2019-05-29T02:17:30.540Z,99.90
2019-05-29T02:19:59.117Z,99.90
2019-05-29T02:22:27.678Z,99.90
2019-05-29T02:24:56.329Z,99.90
2019-05-29T02:27:25.576Z,99.90
2019-05-29T02:29:54.190Z,99.90
2019-05-29T02:32:23.570Z,99.90
2019-05-29T02:34:52.227Z,99.90
2019-05-29T02:37:22.181Z,99.90
2019-05-29T02:39:50.866Z,99.90
2019-05-29T02:42:20.880Z,99.90
2019-05-29T02:44:49.582Z,99.90
2019-05-29T02:47:19.277Z,99.90
2019-05-29T02:49:47.942Z,99.90
2019-05-29T02:52:16.519Z,99.90
2019-05-29T02:54:45.103Z,99.90
2019-05-29T02:57:13.663Z,99.90
2019-05-29T02:59:42.244Z,99.90
2019-05-29T03:02:10.797Z,99.90
2019-05-29T03:04:39.370Z,99.90
2019-05-29T03:07:07.923Z,99.90
2019-05-29T03:09:36.669Z,99.90
2019-05-29T03:12:05.313Z,99.90
2019-05-29T03:14:34.654Z,99.90
2019-05-29T03:17:03.520Z,99.90
2019-05-29T03:19:32.551Z,99.90
2019-05-29T03:22:01.459Z,99.90
2019-05-29T03:24:30.846Z,99.90
2019-05-29T03:26:59.800Z,99.90
2019-05-29T03:29:29.939Z,99.90
2019-05-29T03:31:58.655Z,99.90
2019-05-29T03:34:31.040Z,99.90
2019-05-29T03:36:57.519Z,99.90
2019-05-29T03:39:26.450Z,99.90
2019-05-29T03:41:55.357Z,99.90
2019-05-29T03:44:23.933Z,99.90
2019-05-29T03:46:52.502Z,99.90
2019-05-29T03:49:21.068Z,99.90
2019-05-29T03:51:49.654Z,99.90
2019-05-29T03:54:18.206Z,99.90
2019-05-29T03:56:46.783Z,99.90
2019-05-29T03:59:15.333Z,99.90
2019-05-29T04:01:43.838Z,99.90
2019-05-29T04:04:12.409Z,99.90
2019-05-29T04:06:40.995Z,99.90
2019-05-29T04:09:09.557Z,99.90
2019-05-29T04:11:38.810Z,99.90
2019-05-29T04:14:07.518Z,99.90
2019-05-29T04:16:55.308Z,99.90
2019-05-29T04:19:06.653Z,99.90
2019-05-29T04:21:38.419Z,99.90
2019-05-29T04:24:07.054Z,99.90
2019-05-29T04:26:38.697Z,99.90
2019-05-29T04:29:07.323Z,99.90
2019-05-29T04:31:36.549Z,99.90
2019-05-29T04:34:05.486Z,99.90
2019-05-29T04:36:34.892Z,99.90
2019-05-29T04:39:05.079Z,99.90
2019-05-29T04:41:34.733Z,99.90
2019-05-29T04:44:03.399Z,99.90
2019-05-29T04:46:31.975Z,99.90
2019-05-29T04:49:00.547Z,99.90
2019-05-29T04:51:29.241Z,99.90
2019-05-29T04:53:58.098Z,99.90
2019-05-29T04:56:26.665Z,99.90
2019-05-29T04:58:55.153Z,99.90
2019-05-29T05:01:23.659Z,99.90
2019-05-29T05:03:52.225Z,99.90
2019-05-29T05:06:20.803Z,99.90
2019-05-29T05:08:49.373Z,99.90
2019-05-29T05:11:18.143Z,99.90
2019-05-29T05:13:47.625Z,99.90
2019-05-29T05:16:16.145Z,99.90
2019-05-29T05:18:44.709Z,99.90
2019-05-29T05:21:13.325Z,99.90
2019-05-29T05:23:41.857Z,99.90
2019-05-29T05:26:10.509Z,99.90
2019-05-29T05:28:39.111Z,99.90
2019-05-29T05:31:07.715Z,99.90
2019-05-29T05:33:36.746Z,99.90
2019-05-29T05:36:05.315Z,99.90
2019-05-29T05:38:34.671Z,99.90
2019-05-29T05:41:03.406Z,99.90
2019-05-29T05:43:32.847Z,99.90
2019-05-29T05:46:01.448Z,99.90
2019-05-29T05:48:30.896Z,99.90
2019-05-29T05:50:59.502Z,99.90
2019-05-29T05:53:28.130Z,99.90
2019-05-29T05:55:56.703Z,99.90
2019-05-29T05:58:25.268Z,99.90
2019-05-29T06:00:53.911Z,99.90
2019-05-29T06:03:22.469Z,99.90
2019-05-29T06:05:51.046Z,99.90
2019-05-29T06:08:19.712Z,99.90
2019-05-29T06:10:51.089Z,99.90
2019-05-29T06:13:18.542Z,99.90
2019-05-29T06:15:47.097Z,99.90
2019-05-29T06:18:21.438Z,99.90
2019-05-29T06:20:45.948Z,99.90
2019-05-29T06:23:14.512Z,99.90
2019-05-29T06:25:43.871Z,99.90
2019-05-29T06:28:12.481Z,99.90
2019-05-29T06:30:42.736Z,94.70
2019-05-29T06:33:11.273Z,92.50
2019-05-29T06:35:39.844Z,90.40
2019-05-29T06:38:08.485Z,84.40
2019-05-29T06:40:40.175Z,81.20
2019-05-29T06:43:12.149Z,81.10
2019-05-29T06:45:41.978Z,80.80
2019-05-29T06:48:13.651Z,79.70
2019-05-29T06:50:43.336Z,78.00
2019-05-29T06:53:13.370Z,78.10
2019-05-29T06:55:42.178Z,78.40
2019-05-29T06:58:11.390Z,76.60
2019-05-29T07:00:41.150Z,74.40
2019-05-29T07:03:10.107Z,72.80
2019-05-29T07:05:39.800Z,75.60
2019-05-29T07:08:19.062Z,73.60
2019-05-29T07:10:40.197Z,72.60
2019-05-29T07:13:08.990Z,77.60
2019-05-29T07:15:38.567Z,82.50
2019-05-29T07:18:07.245Z,84.30
2019-05-29T07:20:36.525Z,84.10
2019-05-29T07:23:05.089Z,90.20
2019-05-29T07:25:33.582Z,91.80
2019-05-29T07:28:02.173Z,91.50
2019-05-29T07:30:31.070Z,92.60
2019-05-29T07:32:59.661Z,93.90
2019-05-29T07:35:28.289Z,96.20
2019-05-29T07:37:56.873Z,97.70
2019-05-29T07:40:25.436Z,99.90
2019-05-29T07:42:56.538Z,99.90
2019-05-29T07:45:24.387Z,99.90
2019-05-29T07:47:52.990Z,99.90
2019-05-29T07:50:23.209Z,99.90
2019-05-29T07:52:52.148Z,99.90
2019-05-29T07:55:23.660Z,99.10
2019-05-29T07:57:51.029Z,94.70
2019-05-29T08:00:20.134Z,94.10
2019-05-29T08:02:49.499Z,90.00
2019-05-29T08:05:18.149Z,90.10
2019-05-29T08:07:47.539Z,89.40
2019-05-29T08:10:16.954Z,86.10
2019-05-29T08:12:51.216Z,83.00
2019-05-29T08:15:16.455Z,79.90
2019-05-29T08:17:46.197Z,81.40
2019-05-29T08:20:15.256Z,86.70
2019-05-29T08:22:44.399Z,90.30
2019-05-29T08:25:13.163Z,90.80
2019-05-29T08:27:42.615Z,91.20
2019-05-29T08:30:11.354Z,90.90
2019-05-29T08:32:40.814Z,91.70
2019-05-29T08:35:09.656Z,90.10
2019-05-29T08:37:38.251Z,91.20
2019-05-29T08:40:08.450Z,88.00
2019-05-29T08:42:37.202Z,86.50
2019-05-29T08:45:06.999Z,86.10
2019-05-29T08:47:35.595Z,90.70
2019-05-29T08:50:18.214Z,86.30
2019-05-29T08:52:36.022Z,85.30
2019-05-29T08:55:05.427Z,85.70
2019-05-29T08:57:34.007Z,83.60
2019-05-29T09:00:02.641Z,87.30
2019-05-29T09:02:31.223Z,88.80
2019-05-29T09:04:59.794Z,89.30
2019-05-29T09:07:28.385Z,87.30
2019-05-29T09:09:56.941Z,90.80
2019-05-29T09:12:25.602Z,84.30
2019-05-29T09:14:54.166Z,85.90
2019-05-29T09:17:22.817Z,84.20
2019-05-29T09:19:51.310Z,90.00
2019-05-29T09:22:20.966Z,87.30
2019-05-29T09:24:49.630Z,88.90
2019-05-29T09:27:19.123Z,91.10
2019-05-29T09:29:47.810Z,86.50
2019-05-29T09:32:17.082Z,87.00
2019-05-29T09:34:47.697Z,90.90
2019-05-29T09:37:17.381Z,91.10
2019-05-29T09:39:46.689Z,92.00
2019-05-29T09:42:16.736Z,89.50
2019-05-29T09:44:45.482Z,92.20
2019-05-29T09:47:15.568Z,92.90
2019-05-29T09:49:45.047Z,91.90
2019-05-29T09:52:13.602Z,91.20
2019-05-29T09:54:42.106Z,91.00
2019-05-29T09:57:10.664Z,90.40
2019-05-29T09:59:39.245Z,90.00
2019-05-29T10:02:09.115Z,90.30
2019-05-29T10:04:38.020Z,90.10
2019-05-29T10:07:06.647Z,91.90
2019-05-29T10:09:35.229Z,96.00
2019-05-29T10:12:06.713Z,94.10
2019-05-29T10:14:34.089Z,93.50
2019-05-29T10:17:08.023Z,92.80
2019-05-29T10:19:32.909Z,91.70
2019-05-29T10:22:02.566Z,93.10
2019-05-29T10:24:32.573Z,90.60
2019-05-29T10:27:02.933Z,93.60
2019-05-29T10:29:31.646Z,93.10
2019-05-29T10:32:00.214Z,93.10
2019-05-29T10:34:28.810Z,92.80
2019-05-29T10:36:57.375Z,93.50
2019-05-29T10:39:25.968Z,93.20
2019-05-29T10:41:54.529Z,93.30
2019-05-29T10:44:23.042Z,88.30
2019-05-29T10:46:52.552Z,92.20
2019-05-29T10:49:21.881Z,87.30
2019-05-29T10:52:09.372Z,92.70
2019-05-29T10:54:20.748Z,92.00
2019-05-29T10:56:50.708Z,92.90
2019-05-29T10:59:19.466Z,92.20
2019-05-29T11:01:49.201Z,91.20
2019-05-29T11:04:17.832Z,92.30
2019-05-29T11:06:47.887Z,92.30
2019-05-29T11:09:16.572Z,90.10
2019-05-29T11:11:46.191Z,90.20
2019-05-29T11:14:14.914Z,90.40
2019-05-29T11:16:43.479Z,88.80
2019-05-29T11:19:12.121Z,91.10
2019-05-29T11:21:40.642Z,91.80
2019-05-29T11:24:09.212Z,91.30
2019-05-29T11:26:37.770Z,89.70
2019-05-29T11:29:06.424Z,90.50
2019-05-29T11:31:35.046Z,90.30
2019-05-29T11:34:04.241Z,92.90
2019-05-29T11:36:32.807Z,92.10
2019-05-29T11:39:05.977Z,90.90
2019-05-29T11:41:31.910Z,92.10
2019-05-29T11:44:00.486Z,93.50
2019-05-29T11:46:29.048Z,91.10
2019-05-29T11:48:57.635Z,91.30
2019-05-29T11:51:26.197Z,92.30
2019-05-29T11:53:55.435Z,93.20
2019-05-29T11:56:24.050Z,89.90
2019-05-29T11:58:52.869Z,88.80
2019-05-29T12:01:21.403Z,88.30
2019-05-29T12:04:13.226Z,86.50
2019-05-29T12:06:20.189Z,91.90
2019-05-29T12:08:48.751Z,86.70
2019-05-29T12:11:17.407Z,83.20
2019-05-29T12:13:46.042Z,86.20
2019-05-29T12:16:14.622Z,85.20
2019-05-29T12:18:43.184Z,92.40
2019-05-29T12:21:11.762Z,89.40
2019-05-29T12:23:40.340Z,89.60
2019-05-29T12:26:21.827Z,80.70
2019-05-29T12:28:39.187Z,79.40
2019-05-29T12:31:07.815Z,81.10
2019-05-29T12:33:36.378Z,86.70
2019-05-29T12:36:05.427Z,84.70
2019-05-29T12:38:33.917Z,84.70
2019-05-29T12:41:03.759Z,87.70
2019-05-29T12:43:32.418Z,83.80
2019-05-29T12:46:01.861Z,87.80
2019-05-29T12:48:30.466Z,83.40
2019-05-29T12:51:00.273Z,87.80
2019-05-29T12:53:31.299Z,88.30
2019-05-29T12:56:00.568Z,88.70
2019-05-29T12:58:29.308Z,85.50
2019-05-29T13:00:58.524Z,89.20
2019-05-29T13:03:27.271Z,90.30
2019-05-29T13:05:56.088Z,88.90
2019-05-29T13:08:24.690Z,90.20
2019-05-29T13:10:54.235Z,89.30
2019-05-29T13:13:22.826Z,92.30
2019-05-29T13:15:51.663Z,90.20
2019-05-29T13:18:20.264Z,90.50
2019-05-29T13:20:48.845Z,89.30
2019-05-29T13:23:17.517Z,89.60
2019-05-29T13:25:46.146Z,90.50
2019-05-29T13:28:14.788Z,85.80
2019-05-29T13:30:43.367Z,87.40
2019-05-29T13:33:11.925Z,90.30
2019-05-29T13:35:40.511Z,90.00
2019-05-29T13:38:09.211Z,90.40
2019-05-29T13:40:37.809Z,90.90
2019-05-29T13:43:14.450Z,90.70
2019-05-29T13:45:36.605Z,90.40
2019-05-29T13:48:05.507Z,88.10
2019-05-29T13:50:34.157Z,88.40
2019-05-29T13:53:03.571Z,90.30
2019-05-29T13:55:32.220Z,90.60
2019-05-29T13:58:01.664Z,90.50
2019-05-29T14:00:34.326Z,90.10
2019-05-29T14:03:00.506Z,87.40
2019-05-29T14:05:29.087Z,89.30
2019-05-29T14:07:58.533Z,89.00
2019-05-29T14:10:29.108Z,89.10
2019-05-29T14:12:58.834Z,89.70
2019-05-29T14:15:27.588Z,86.90
2019-05-29T14:17:56.259Z,86.50
2019-05-29T14:20:25.015Z,86.30
2019-05-29T14:22:53.585Z,86.60
2019-05-29T14:25:22.157Z,89.10
2019-05-29T14:27:50.738Z,90.60
2019-05-29T14:30:19.663Z,88.50
2019-05-29T14:32:48.220Z,87.70
2019-05-29T14:35:16.989Z,90.10
2019-05-29T14:37:45.606Z,87.70
2019-05-29T14:40:14.595Z,86.40
2019-05-29T14:42:43.204Z,86.40
2019-05-29T14:45:12.760Z,88.30
2019-05-29T14:47:41.455Z,83.30
2019-05-29T14:50:11.171Z,85.80
2019-05-29T14:52:40.223Z,87.00
2019-05-29T14:55:14.169Z,88.80
2019-05-29T14:57:39.463Z,87.90
2019-05-29T15:00:20.638Z,84.80
2019-05-29T15:02:41.562Z,88.10
2019-05-29T15:05:12.148Z,83.50
2019-05-29T15:07:41.135Z,84.80
2019-05-29T15:10:22.747Z,87.10
2019-05-29T15:12:40.690Z,90.50
2019-05-29T15:15:14.273Z,88.40
2019-05-29T15:17:42.077Z,88.00
2019-05-29T15:20:12.523Z,90.30
2019-05-29T15:22:41.581Z,87.40
2019-05-29T15:25:19.500Z,90.40
2019-05-29T15:27:40.828Z,88.80
2019-05-29T15:30:11.806Z,87.30
2019-05-29T15:32:40.566Z,89.80
2019-05-29T15:35:13.751Z,87.60
2019-05-29T15:37:40.087Z,89.10
2019-05-29T15:40:10.905Z,90.20
2019-05-29T15:42:39.775Z,88.00
2019-05-29T15:45:09.971Z,87.70
2019-05-29T15:47:38.605Z,86.70
2019-05-29T15:50:11.401Z,90.10
2019-05-29T15:52:40.316Z,84.60
2019-05-29T15:55:24.873Z,83.80
2019-05-29T15:57:39.643Z,86.30
2019-05-29T16:00:13.729Z,83.40
2019-05-29T16:02:42.427Z,81.50
2019-05-29T16:05:12.938Z,84.30
2019-05-29T16:07:41.705Z,86.20
2019-05-29T16:10:14.807Z,84.90
2019-05-29T16:12:42.784Z,85.80
2019-05-29T16:15:13.113Z,85.00
2019-05-29T16:17:41.924Z,90.00
2019-05-29T16:20:12.357Z,83.00
2019-05-29T16:22:41.030Z,85.40
2019-05-29T16:25:12.453Z,84.40
2019-05-29T16:27:41.308Z,81.00
2019-05-29T16:30:11.498Z,80.70
2019-05-29T16:32:40.133Z,82.40
2019-05-29T16:35:09.236Z,78.70
2019-05-29T16:37:37.821Z,78.50
2019-05-29T16:40:16.207Z,82.30
2019-05-29T16:42:44.953Z,79.20
2019-05-29T16:45:14.271Z,78.40
2019-05-29T16:47:42.863Z,81.10
2019-05-29T16:50:12.955Z,78.80
2019-05-29T16:52:41.651Z,79.00
2019-05-29T16:55:10.649Z,79.50
2019-05-29T16:57:39.225Z,82.50
2019-05-29T17:00:10.342Z,81.70
2019-05-29T17:02:39.523Z,83.20
2019-05-29T17:05:08.954Z,80.10
2019-05-29T17:07:37.610Z,81.00
2019-05-29T17:10:07.510Z,80.90
2019-05-29T17:12:36.091Z,82.80
2019-05-29T17:15:10.401Z,81.50
2019-05-29T17:17:38.977Z,83.70
2019-05-29T17:20:08.684Z,79.30
2019-05-29T17:22:38.289Z,85.50
2019-05-29T17:25:07.094Z,81.70
2019-05-29T17:27:35.761Z,83.00
2019-05-29T17:30:06.457Z,82.20
2019-05-29T17:32:35.049Z,83.30
2019-05-29T17:35:05.628Z,83.40
2019-05-29T17:37:34.197Z,83.40
2019-05-29T17:40:02.698Z,82.40
2019-05-29T17:42:31.278Z,84.00
2019-05-29T17:44:59.845Z,83.70
2019-05-29T17:47:28.444Z,83.50
2019-05-29T17:49:57.007Z,85.20
2019-05-29T17:52:25.978Z,85.20
2019-05-29T17:54:54.546Z,85.70
2019-05-29T17:57:23.901Z,88.30
2019-05-29T17:59:52.500Z,85.80
2019-05-29T18:02:22.143Z,83.70
2019-05-29T18:04:51.221Z,86.30
2019-05-29T18:07:20.650Z,84.40
2019-05-29T18:09:49.282Z,85.10
2019-05-29T18:12:19.061Z,86.60
2019-05-29T18:14:47.806Z,85.60
2019-05-29T18:17:17.458Z,91.80
2019-05-29T18:19:46.061Z,88.30
2019-05-29T18:22:14.566Z,87.80
2019-05-29T18:24:43.075Z,88.70
2019-05-29T18:27:11.659Z,88.90
2019-05-29T18:29:40.232Z,90.10
2019-05-29T18:32:08.878Z,90.10
2019-05-29T18:34:37.365Z,87.00
2019-05-29T18:37:05.876Z,88.00
2019-05-29T18:39:34.434Z,90.20
2019-05-29T18:42:04.078Z,90.00
2019-05-29T18:44:33.072Z,90.70
2019-05-29T18:47:01.646Z,91.10
2019-05-29T18:49:30.282Z,91.00
2019-05-29T18:52:00.568Z,92.10
2019-05-29T18:54:30.013Z,91.90
2019-05-29T18:57:14.631Z,95.10
2019-05-29T18:59:29.588Z,93.80
2019-05-29T19:01:58.274Z,94.00
2019-05-29T19:04:27.627Z,93.00
2019-05-29T19:06:56.219Z,93.90
2019-05-29T19:09:25.664Z,93.40
2019-05-29T19:11:54.265Z,95.30
2019-05-29T19:14:24.058Z,98.20
2019-05-29T19:16:52.707Z,99.20
2019-05-29T19:19:22.030Z,98.00
2019-05-29T19:21:50.614Z,98.20
2019-05-29T19:24:19.266Z,99.90
2019-05-29T19:26:47.822Z,99.90
2019-05-29T19:29:16.405Z,99.90
2019-05-29T19:31:44.969Z,99.90
2019-05-29T19:34:13.552Z,99.90
2019-05-29T19:36:42.125Z,99.90
2019-05-29T19:39:10.710Z,99.90
2019-05-29T19:41:39.280Z,99.90
2019-05-29T19:44:07.930Z,99.90
2019-05-29T19:46:52.841Z,99.90
2019-05-29T19:49:06.718Z,99.90
2019-05-29T19:51:35.514Z,99.90
2019-05-29T19:54:04.236Z,99.90
2019-05-29T19:56:33.807Z,99.90
2019-05-29T19:59:02.415Z,99.90
2019-05-29T20:01:36.155Z,99.90
2019-05-29T20:04:01.257Z,99.90
2019-05-29T20:06:30.903Z,99.90
2019-05-29T20:08:59.511Z,99.90
2019-05-29T20:11:29.334Z,99.90
2019-05-29T20:13:57.931Z,99.90
2019-05-29T20:16:26.420Z,99.90
2019-05-29T20:18:55.000Z,99.90
2019-05-29T20:21:23.567Z,99.90
2019-05-29T20:23:52.160Z,99.90
2019-05-29T20:26:20.717Z,99.90
2019-05-29T20:28:49.297Z,99.90
2019-05-29T20:31:17.865Z,99.90
2019-05-29T20:33:46.446Z,99.90
2019-05-29T20:36:14.945Z,99.90
2019-05-29T20:38:43.456Z,99.90
2019-05-29T20:41:12.018Z,99.90
2019-05-29T20:43:41.802Z,99.90
2019-05-29T20:46:10.386Z,99.90
2019-05-29T20:48:38.981Z,99.90
2019-05-29T20:51:07.483Z,99.90
2019-05-29T20:53:37.416Z,99.90
2019-05-29T20:56:06.021Z,99.90
2019-05-29T20:58:35.603Z,99.90
2019-05-29T21:01:04.234Z,99.90
2019-05-29T21:03:34.228Z,99.90
2019-05-29T21:06:03.617Z,99.90
2019-05-29T21:08:32.774Z,99.90
2019-05-29T21:11:01.424Z,99.90
2019-05-29T21:13:30.005Z,99.90
2019-05-29T21:15:58.502Z,99.90
2019-05-29T21:18:27.094Z,99.90
2019-05-29T21:20:55.589Z,99.90
2019-05-29T21:23:24.174Z,99.90
2019-05-29T21:25:52.741Z,99.90
2019-05-29T21:28:21.246Z,99.90
2019-05-29T21:30:49.733Z,99.90
2019-05-29T21:33:19.399Z,99.90
2019-05-29T21:35:47.969Z,99.90
2019-05-29T21:38:16.543Z,99.90
2019-05-29T21:40:45.029Z,99.90
2019-05-29T21:43:13.541Z,99.90
2019-05-29T21:45:43.138Z,99.90
2019-05-29T21:48:11.698Z,99.90
2019-05-29T21:50:41.095Z,99.90
2019-05-29T21:53:09.701Z,99.90
2019-05-29T21:55:39.442Z,99.90
2019-05-29T21:58:08.030Z,99.90
2019-05-29T22:00:42.243Z,99.90
2019-05-29T22:03:10.933Z,99.90
2019-05-29T22:05:40.552Z,99.90
2019-05-29T22:08:09.224Z,99.90
2019-05-29T22:10:39.162Z,99.90
2019-05-29T22:13:07.861Z,99.90
2019-05-29T22:15:36.511Z,99.90
2019-05-29T22:18:05.247Z,99.90
2019-05-29T22:20:33.831Z,99.90
2019-05-29T22:23:02.904Z,99.90
2019-05-29T22:25:34.412Z,99.90
2019-05-29T22:28:01.795Z,99.90
2019-05-29T22:30:30.426Z,99.90
2019-05-29T22:32:59.563Z,99.90
2019-05-29T22:35:28.237Z,99.90
2019-05-29T22:37:57.707Z,99.90
2019-05-29T22:40:26.425Z,99.90
2019-05-29T22:42:55.594Z,99.90
2019-05-29T22:45:24.270Z,99.90
2019-05-29T22:47:53.683Z,99.90
2019-05-29T22:50:22.418Z,99.90
2019-05-29T22:52:51.742Z,99.90
2019-05-29T22:55:20.363Z,99.90
2019-05-29T22:57:49.130Z,99.90
2019-05-29T23:00:18.011Z,99.90
2019-05-29T23:02:46.574Z,99.90
2019-05-29T23:05:15.658Z,99.90
2019-05-29T23:07:44.229Z,99.90
2019-05-29T23:10:13.946Z,99.90
2019-05-29T23:12:42.510Z,99.90
2019-05-29T23:15:11.162Z,99.90
2019-05-29T23:17:39.733Z,99.90
2019-05-29T23:20:08.654Z,99.90
2019-05-29T23:22:37.240Z,99.90
2019-05-29T23:25:09.071Z,99.90
2019-05-29T23:27:37.632Z,99.90
2019-05-29T23:30:07.965Z,99.90
2019-05-29T23:32:36.606Z,99.90
2019-05-29T23:35:08.442Z,99.90
2019-05-29T23:37:37.063Z,99.90
2019-05-29T23:40:09.253Z,99.90
2019-05-29T23:42:38.965Z,99.90
2019-05-29T23:45:07.898Z,99.90
2019-05-29T23:47:36.457Z,99.90
2019-05-29T23:50:08.973Z,99.90
2019-05-29T23:52:37.733Z,99.90
2019-05-29T23:55:07.453Z,99.90
2019-05-29T23:57:35.968Z,99.90
